createdAt,value
2019-01-17T00:02:50.782Z,13.18
2019-01-17T00:09:11.587Z,12.13
2019-01-17T00:15:15.749Z,13.03
2019-01-17T00:21:19.803Z,12.33
2019-01-17T00:27:24.156Z,12.55
2019-01-17T00:33:37.206Z,12.45
2019-01-17T00:40:02.139Z,13.22
2019-01-17T00:46:24.755Z,12.90
2019-01-17T00:52:28.816Z,12.82
2019-01-17T00:58:38.591Z,12.65
2019-01-17T01:04:42.725Z,13.30
2019-01-17T01:10:46.838Z,12.35
2019-01-17T01:17:12.294Z,12.68
2019-01-17T01:23:22.335Z,13.43
2019-01-17T01:29:29.255Z,13.50
2019-01-17T01:35:39.302Z,13.58
2019-01-17T01:41:49.392Z,11.80
2019-01-17T01:47:59.591Z,12.90
2019-01-17T01:54:01.707Z,12.37
2019-01-17T02:00:05.170Z,12.10
2019-01-17T02:06:08.395Z,11.88
2019-01-17T02:12:10.738Z,13.22
2019-01-17T02:18:14.342Z,13.35
2019-01-17T02:24:16.540Z,12.30
2019-01-17T02:30:18.800Z,11.85
2019-01-17T02:36:21.129Z,12.18
2019-01-17T02:42:24.328Z,11.97
2019-01-17T02:48:26.750Z,11.68
2019-01-17T02:54:35.600Z,12.47
2019-01-17T03:00:33.252Z,12.60
2019-01-17T03:06:35.383Z,11.60
2019-01-17T03:12:37.679Z,13.13
2019-01-17T03:18:39.983Z,13.22
2019-01-17T03:24:43.138Z,13.28
2019-01-17T03:30:45.674Z,12.37
2019-01-17T03:36:48.078Z,13.03
2019-01-17T03:42:50.351Z,12.80
2019-01-17T03:48:53.674Z,13.43
2019-01-17T03:54:55.994Z,12.07
2019-01-17T04:00:58.164Z,11.43
2019-01-17T04:07:00.302Z,13.45
2019-01-17T04:13:02.627Z,15.90
2019-01-17T04:19:04.821Z,13.90
2019-01-17T04:25:07.888Z,14.60
2019-01-17T04:31:10.003Z,13.58
2019-01-17T04:37:12.187Z,24.35
2019-01-17T04:43:15.830Z,20.95
2019-01-17T04:49:18.027Z,17.40
2019-01-17T04:55:20.151Z,16.73
2019-01-17T05:01:22.531Z,18.42
2019-01-17T05:07:25.758Z,15.45
2019-01-17T05:13:30.086Z,14.00
2019-01-17T05:19:32.201Z,12.95
2019-01-17T05:25:34.307Z,14.35
2019-01-17T05:31:37.670Z,13.70
2019-01-17T05:37:39.774Z,13.90
2019-01-17T05:43:41.923Z,13.88
2019-01-17T05:49:45.194Z,13.68
2019-01-17T05:55:48.145Z,13.48
2019-01-17T06:01:50.465Z,13.90
2019-01-17T06:07:54.182Z,13.60
2019-01-17T06:13:57.563Z,15.05
2019-01-17T06:20:00.057Z,14.00
2019-01-17T06:26:02.245Z,13.83
2019-01-17T06:32:04.824Z,13.93
2019-01-17T06:38:07.224Z,16.85
2019-01-17T06:44:20.220Z,21.97
2019-01-17T06:50:19.955Z,25.15
2019-01-17T06:56:22.259Z,19.60
2019-01-17T07:02:24.585Z,16.48
2019-01-17T07:08:26.862Z,14.45
2019-01-17T07:14:29.255Z,16.82
2019-01-17T07:20:32.098Z,15.53
2019-01-17T07:26:34.282Z,17.98
2019-01-17T07:32:36.594Z,16.40
2019-01-17T07:38:38.736Z,15.20
2019-01-17T07:44:40.836Z,14.13
2019-01-17T07:50:43.365Z,17.95
2019-01-17T07:56:45.747Z,27.75
2019-01-17T08:02:47.951Z,17.45
2019-01-17T08:08:50.243Z,18.17
2019-01-17T08:14:52.702Z,15.43
2019-01-17T08:20:54.923Z,14.58
2019-01-17T08:26:57.151Z,14.78
2019-01-17T08:32:59.927Z,16.07
2019-01-17T08:39:04.187Z,34.88
2019-01-17T08:45:07.018Z,21.45
2019-01-17T08:51:09.255Z,18.00
2019-01-17T08:57:11.399Z,18.42
2019-01-17T09:03:13.824Z,16.35
2019-01-17T09:09:16.092Z,15.98
2019-01-17T09:15:20.080Z,17.73
2019-01-17T09:21:22.453Z,19.32
2019-01-17T09:27:25.071Z,20.52
2019-01-17T09:33:27.223Z,19.45
2019-01-17T09:39:29.682Z,17.98
2019-01-17T09:45:32.031Z,17.98
2019-01-17T09:51:34.824Z,20.15
2019-01-17T09:57:37.156Z,18.62
2019-01-17T10:03:39.391Z,20.35
2019-01-17T10:09:41.623Z,20.55
2019-01-17T10:15:48.176Z,20.72
2019-01-17T10:22:38.708Z,20.35
2019-01-17T10:29:30.706Z,19.35
2019-01-17T10:36:11.427Z,19.92
2019-01-17T10:43:01.522Z,20.02
2019-01-17T10:50:11.199Z,20.88
2019-01-17T10:57:01.284Z,18.48
2019-01-17T11:03:50.898Z,16.10
2019-01-17T11:10:11.210Z,18.82
2019-01-17T11:16:45.951Z,17.98
2019-01-17T11:23:32.240Z,18.55
2019-01-17T11:30:01.436Z,15.93
2019-01-17T11:36:35.830Z,16.55
2019-01-17T11:43:06.359Z,15.10
2019-01-17T11:49:57.374Z,14.05
2019-01-17T11:56:47.424Z,14.53
2019-01-17T12:03:40.635Z,12.63
2019-01-17T12:09:43.023Z,11.05
2019-01-17T12:15:47.485Z,10.03
2019-01-17T12:21:50.857Z,9.40
2019-01-17T12:27:52.977Z,9.43
2019-01-17T12:33:55.132Z,8.73
2019-01-17T12:39:59.346Z,9.13
2019-01-17T12:46:02.639Z,8.48
2019-01-17T12:52:04.797Z,8.10
2019-01-17T12:58:06.898Z,8.28
2019-01-17T13:04:09.143Z,8.83
2019-01-17T13:10:11.650Z,7.42
2019-01-17T13:16:15.309Z,6.70
2019-01-17T13:22:17.743Z,7.58
2019-01-17T13:28:19.859Z,6.17
2019-01-17T13:34:22.185Z,7.20
2019-01-17T13:40:25.426Z,6.65
2019-01-17T13:46:27.576Z,7.12
2019-01-17T13:52:29.848Z,6.62
2019-01-17T13:58:32.066Z,7.80
2019-01-17T14:04:35.227Z,8.00
2019-01-17T14:10:37.683Z,7.10
2019-01-17T14:16:40.699Z,5.95
2019-01-17T14:22:44.546Z,5.83
2019-01-17T14:28:49.121Z,5.45
2019-01-17T14:34:51.668Z,5.47
2019-01-17T14:40:54.318Z,5.40
2019-01-17T14:46:56.456Z,5.72
2019-01-17T14:52:58.919Z,6.03
2019-01-17T14:59:01.458Z,5.62
2019-01-17T15:05:05.162Z,5.45
2019-01-17T15:11:08.777Z,6.25
2019-01-17T15:17:11.088Z,6.10
2019-01-17T15:23:13.394Z,7.03
2019-01-17T15:29:15.943Z,8.10
2019-01-17T15:35:18.192Z,7.85
2019-01-17T15:41:20.752Z,7.75
2019-01-17T15:47:23.022Z,7.85
2019-01-17T15:53:25.113Z,8.20
2019-01-17T15:59:27.498Z,12.10
2019-01-17T16:05:29.788Z,12.55
2019-01-17T16:11:33.200Z,12.25
2019-01-17T16:17:35.727Z,13.03
2019-01-17T16:23:38.221Z,13.22
2019-01-17T16:29:40.796Z,12.25
2019-01-17T16:35:43.218Z,10.28
2019-01-17T16:41:46.691Z,7.65
2019-01-17T16:47:48.942Z,4.80
2019-01-17T16:53:52.353Z,4.10
2019-01-17T16:59:54.670Z,3.65
2019-01-17T17:05:58.055Z,4.08
2019-01-17T17:12:00.756Z,3.65
2019-01-17T17:18:03.915Z,3.40
2019-01-17T17:24:06.603Z,3.42
2019-01-17T17:30:19.560Z,3.62
2019-01-17T17:36:23.086Z,3.75
2019-01-17T17:42:26.379Z,3.58
2019-01-17T17:48:28.870Z,4.55
2019-01-17T17:54:31.236Z,5.35
2019-01-17T18:00:42.588Z,5.28
2019-01-17T18:06:44.868Z,5.53
2019-01-17T18:12:48.584Z,6.10
2019-01-17T18:18:52.001Z,5.37
2019-01-17T18:24:54.453Z,3.87
2019-01-17T18:30:56.726Z,4.12
2019-01-17T18:37:00.055Z,4.42
2019-01-17T18:43:03.467Z,4.50
2019-01-17T18:49:05.848Z,5.37
2019-01-17T18:55:08.185Z,6.60
2019-01-17T19:01:10.651Z,7.22
2019-01-17T19:07:14.557Z,6.42
2019-01-17T19:13:17.031Z,4.85
2019-01-17T19:19:20.276Z,4.00
2019-01-17T19:25:24.615Z,3.37
2019-01-17T19:31:26.735Z,4.60
2019-01-17T19:37:28.962Z,4.83
2019-01-17T19:43:31.346Z,4.50
2019-01-17T19:49:33.786Z,5.50
2019-01-17T19:55:36.072Z,2.62
2019-01-17T20:01:38.568Z,1.55
2019-01-17T20:07:40.951Z,1.50
2019-01-17T20:13:43.167Z,1.32
2019-01-17T20:19:45.514Z,1.70
2019-01-17T20:25:48.720Z,1.40
2019-01-17T20:31:51.059Z,1.67
2019-01-17T20:37:53.303Z,1.50
2019-01-17T20:43:55.771Z,1.55
2019-01-17T20:49:58.251Z,1.40
2019-01-17T20:56:00.517Z,1.37
2019-01-17T21:02:23.503Z,1.10
2019-01-17T21:08:25.968Z,1.02
2019-01-17T21:14:28.309Z,1.25
2019-01-17T21:20:30.815Z,1.10
2019-01-17T21:26:33.062Z,1.17
2019-01-17T21:32:37.127Z,1.20
2019-01-17T21:38:41.636Z,1.12
2019-01-17T21:44:43.871Z,1.30
2019-01-17T21:50:47.977Z,1.55
2019-01-17T21:56:50.396Z,1.62
2019-01-17T22:02:52.855Z,1.45
2019-01-17T22:08:57.059Z,1.60
2019-01-17T22:14:59.202Z,1.50
2019-01-17T22:21:02.652Z,1.27
2019-01-17T22:27:04.824Z,1.80
2019-01-17T22:33:08.341Z,1.40
2019-01-17T22:39:14.471Z,1.60
2019-01-17T22:45:24.782Z,1.45
2019-01-17T22:51:26.950Z,1.22
2019-01-17T22:57:29.240Z,0.85
2019-01-17T23:03:39.878Z,0.80
2019-01-17T23:09:43.344Z,1.00
2019-01-17T23:15:45.848Z,0.90
2019-01-17T23:21:48.575Z,1.00
2019-01-17T23:27:50.825Z,0.90
2019-01-17T23:33:53.198Z,1.10
2019-01-17T23:39:55.384Z,1.10
2019-01-17T23:45:58.439Z,0.90
2019-01-17T23:52:02.679Z,1.10
2019-01-17T23:58:05.188Z,1.37
